sensor_id;sensor_type;location;lat;lon;timestamp;temperature;humidity
20068;DHT22;10194;50.824;7.134;2023-03-24T00:00:19;13.60;99.90
20068;DHT22;10194;50.824;7.134;2023-03-24T00:02:48;13.60;99.90
20068;DHT22;10194;50.824;7.134;2023-03-24T00:05:17;13.60;99.90
20068;DHT22;10194;50.824;7.134;2023-03-24T00:07:45;13.60;99.90
20068;DHT22;10194;50.824;7.134;2023-03-24T00:10:14;13.60;99.90
20068;DHT22;10194;50.824;7.134;2023-03-24T00:12:43;13.70;99.90
20068;DHT22;10194;50.824;7.134;2023-03-24T00:15:12;13.70;99.90
20068;DHT22;10194;50.824;7.134;2023-03-24T00:17:44;13.70;99.90
20068;DHT22;10194;50.824;7.134;2023-03-24T00:20:13;13.70;99.90
20068;DHT22;10194;50.824;7.134;2023-03-24T00:22:44;13.70;99.90
20068;DHT22;10194;50.824;7.134;2023-03-24T00:25:15;13.70;99.90
20068;DHT22;10194;50.824;7.134;2023-03-24T00:27:42;13.70;99.90
20068;DHT22;10194;50.824;7.134;2023-03-24T00:30:10;13.70;99.90
20068;DHT22;10194;50.824;7.134;2023-03-24T00:32:37;13.70;99.90
20068;DHT22;10194;50.824;7.134;2023-03-24T00:35:09;13.70;99.90
20068;DHT22;10194;50.824;7.134;2023-03-24T00:37:38;13.80;99.90
20068;DHT22;10194;50.824;7.134;2023-03-24T00:40:06;13.80;99.90
20068;DHT22;10194;50.824;7.134;2023-03-24T00:42:37;13.80;99.90
20068;DHT22;10194;50.824;7.134;2023-03-24T00:45:05;13.80;99.90
20068;DHT22;10194;50.824;7.134;2023-03-24T00:47:33;13.70;99.90
20068;DHT22;10194;50.824;7.134;2023-03-24T00:50:15;13.70;99.90
20068;DHT22;10194;50.824;7.134;2023-03-24T00:52:45;13.70;99.90
20068;DHT22;10194;50.824;7.134;2023-03-24T00:55:13;13.80;99.90
20068;DHT22;10194;50.824;7.134;2023-03-24T00:57:41;13.80;99.90
20068;DHT22;10194;50.824;7.134;2023-03-24T01:00:19;13.80;99.90
20068;DHT22;10194;50.824;7.134;2023-03-24T01:02:49;13.80;99.90
20068;DHT22;10194;50.824;7.134;2023-03-24T01:05:24;13.80;99.90
20068;DHT22;10194;50.824;7.134;2023-03-24T01:07:59;13.80;99.90
20068;DHT22;10194;50.824;7.134;2023-03-24T01:10:31;13.80;99.90
20068;DHT22;10194;50.824;7.134;2023-03-24T01:12:59;13.80;99.90
20068;DHT22;10194;50.824;7.134;2023-03-24T01:15:29;13.80;99.90
20068;DHT22;10194;50.824;7.134;2023-03-24T01:17:58;13.80;99.90
20068;DHT22;10194;50.824;7.134;2023-03-24T01:20:27;13.80;99.90
20068;DHT22;10194;50.824;7.134;2023-03-24T01:22:58;13.80;99.90
20068;DHT22;10194;50.824;7.134;2023-03-24T01:25:25;13.80;99.90
20068;DHT22;10194;50.824;7.134;2023-03-24T01:27:52;13.70;99.90
20068;DHT22;10194;50.824;7.134;2023-03-24T01:30:24;13.70;99.90
20068;DHT22;10194;50.824;7.134;2023-03-24T01:32:51;13.70;99.90
20068;DHT22;10194;50.824;7.134;2023-03-24T01:35:19;13.70;99.90
20068;DHT22;10194;50.824;7.134;2023-03-24T01:37:45;13.60;99.90
20068;DHT22;10194;50.824;7.134;2023-03-24T01:40:17;13.60;99.90
20068;DHT22;10194;50.824;7.134;2023-03-24T01:42:47;13.60;99.90
20068;DHT22;10194;50.824;7.134;2023-03-24T01:51:47;13.50;99.90
20068;DHT22;10194;50.824;7.134;2023-03-24T01:54:30;13.50;99.90
20068;DHT22;10194;50.824;7.134;2023-03-24T01:57:19;13.50;99.90
20068;DHT22;10194;50.824;7.134;2023-03-24T02:00:12;13.50;99.90
20068;DHT22;10194;50.824;7.134;2023-03-24T02:02:41;13.50;99.90
20068;DHT22;10194;50.824;7.134;2023-03-24T02:05:11;13.40;99.90
20068;DHT22;10194;50.824;7.134;2023-03-24T02:10:30;13.40;99.90
20068;DHT22;10194;50.824;7.134;2023-03-24T02:12:58;13.40;99.90
20068;DHT22;10194;50.824;7.134;2023-03-24T02:15:27;13.40;99.90
20068;DHT22;10194;50.824;7.134;2023-03-24T02:21:11;13.40;99.90
20068;DHT22;10194;50.824;7.134;2023-03-24T02:27:05;13.40;99.90
20068;DHT22;10194;50.824;7.134;2023-03-24T02:30:02;13.40;99.90
20068;DHT22;10194;50.824;7.134;2023-03-24T02:38:52;13.50;99.90
20068;DHT22;10194;50.824;7.134;2023-03-24T02:45:02;13.50;99.90
20068;DHT22;10194;50.824;7.134;2023-03-24T02:50:36;13.40;99.90
20068;DHT22;10194;50.824;7.134;2023-03-24T02:56:21;13.40;99.90
20068;DHT22;10194;50.824;7.134;2023-03-24T02:59:09;13.40;99.90
20068;DHT22;10194;50.824;7.134;2023-03-24T03:02:03;13.40;99.90
20068;DHT22;10194;50.824;7.134;2023-03-24T03:05:03;13.50;99.90
20068;DHT22;10194;50.824;7.134;2023-03-24T03:07:41;13.40;99.90
20068;DHT22;10194;50.824;7.134;2023-03-24T03:10:22;13.30;99.90
20068;DHT22;10194;50.824;7.134;2023-03-24T03:12:52;13.40;99.90
20068;DHT22;10194;50.824;7.134;2023-03-24T03:15:37;13.40;99.90
20068;DHT22;10194;50.824;7.134;2023-03-24T03:18:13;13.40;99.90
20068;DHT22;10194;50.824;7.134;2023-03-24T03:20:47;13.40;99.90
20068;DHT22;10194;50.824;7.134;2023-03-24T03:23:46;13.40;99.90
20068;DHT22;10194;50.824;7.134;2023-03-24T03:26:19;13.40;99.90
20068;DHT22;10194;50.824;7.134;2023-03-24T03:28:52;13.40;99.90
20068;DHT22;10194;50.824;7.134;2023-03-24T03:31:35;13.50;99.90
20068;DHT22;10194;50.824;7.134;2023-03-24T03:34:44;13.60;99.90
20068;DHT22;10194;50.824;7.134;2023-03-24T03:40:41;13.60;99.90
20068;DHT22;10194;50.824;7.134;2023-03-24T03:43:17;13.60;99.90
20068;DHT22;10194;50.824;7.134;2023-03-24T03:45:43;13.80;99.90
20068;DHT22;10194;50.824;7.134;2023-03-24T03:48:10;13.80;99.90
20068;DHT22;10194;50.824;7.134;2023-03-24T03:50:36;13.80;99.90
20068;DHT22;10194;50.824;7.134;2023-03-24T03:53:06;13.80;99.90
20068;DHT22;10194;50.824;7.134;2023-03-24T03:55:33;14.00;99.90
20068;DHT22;10194;50.824;7.134;2023-03-24T03:58:01;14.00;99.90
20068;DHT22;10194;50.824;7.134;2023-03-24T04:00:28;14.00;99.90
20068;DHT22;10194;50.824;7.134;2023-03-24T04:05:58;13.90;99.90
20068;DHT22;10194;50.824;7.134;2023-03-24T04:14:40;13.90;99.90
20068;DHT22;10194;50.824;7.134;2023-03-24T04:20:32;14.00;99.90
20068;DHT22;10194;50.824;7.134;2023-03-24T04:23:27;14.00;99.90
20068;DHT22;10194;50.824;7.134;2023-03-24T04:28:45;13.90;99.90
20068;DHT22;10194;50.824;7.134;2023-03-24T04:31:47;14.00;99.90
20068;DHT22;10194;50.824;7.134;2023-03-24T04:34:55;13.90;99.90
20068;DHT22;10194;50.824;7.134;2023-03-24T04:37:30;14.00;99.90
20068;DHT22;10194;50.824;7.134;2023-03-24T04:39:59;14.10;99.90
20068;DHT22;10194;50.824;7.134;2023-03-24T04:42:43;14.10;99.90
20068;DHT22;10194;50.824;7.134;2023-03-24T04:45:12;14.10;99.90
20068;DHT22;10194;50.824;7.134;2023-03-24T04:47:50;14.10;99.90
20068;DHT22;10194;50.824;7.134;2023-03-24T04:50:34;14.00;99.90
20068;DHT22;10194;50.824;7.134;2023-03-24T04:53:02;14.00;99.90
20068;DHT22;10194;50.824;7.134;2023-03-24T04:58:20;14.10;99.90
20068;DHT22;10194;50.824;7.134;2023-03-24T05:00:47;14.10;99.90
20068;DHT22;10194;50.824;7.134;2023-03-24T05:03:15;14.10;99.90
20068;DHT22;10194;50.824;7.134;2023-03-24T05:05:43;14.10;99.90
20068;DHT22;10194;50.824;7.134;2023-03-24T05:08:11;14.10;99.90
20068;DHT22;10194;50.824;7.134;2023-03-24T05:10:37;14.20;99.90
20068;DHT22;10194;50.824;7.134;2023-03-24T05:13:05;14.10;99.90
20068;DHT22;10194;50.824;7.134;2023-03-24T05:15:31;14.10;99.90
20068;DHT22;10194;50.824;7.134;2023-03-24T05:17:58;14.00;99.90
20068;DHT22;10194;50.824;7.134;2023-03-24T05:20:24;13.60;99.90
20068;DHT22;10194;50.824;7.134;2023-03-24T05:22:51;12.80;99.90
20068;DHT22;10194;50.824;7.134;2023-03-24T05:25:18;12.40;99.90
20068;DHT22;10194;50.824;7.134;2023-03-24T05:27:44;12.10;99.90
20068;DHT22;10194;50.824;7.134;2023-03-24T05:30:11;12.10;99.90
20068;DHT22;10194;50.824;7.134;2023-03-24T05:32:37;12.00;99.90
20068;DHT22;10194;50.824;7.134;2023-03-24T05:35:04;11.90;99.90
20068;DHT22;10194;50.824;7.134;2023-03-24T05:37:30;11.90;99.90
20068;DHT22;10194;50.824;7.134;2023-03-24T05:39:56;11.80;99.90
20068;DHT22;10194;50.824;7.134;2023-03-24T05:42:23;11.80;99.90
20068;DHT22;10194;50.824;7.134;2023-03-24T05:44:49;11.70;99.90
20068;DHT22;10194;50.824;7.134;2023-03-24T05:47:15;11.70;99.90
20068;DHT22;10194;50.824;7.134;2023-03-24T05:49:41;11.60;99.90
20068;DHT22;10194;50.824;7.134;2023-03-24T05:52:08;11.50;99.90
20068;DHT22;10194;50.824;7.134;2023-03-24T05:54:35;11.40;99.90
20068;DHT22;10194;50.824;7.134;2023-03-24T05:57:04;11.50;99.90
20068;DHT22;10194;50.824;7.134;2023-03-24T05:59:33;11.50;99.90
20068;DHT22;10194;50.824;7.134;2023-03-24T06:02:00;11.50;99.90
20068;DHT22;10194;50.824;7.134;2023-03-24T06:04:26;11.60;99.90
20068;DHT22;10194;50.824;7.134;2023-03-24T06:06:57;11.60;99.90
20068;DHT22;10194;50.824;7.134;2023-03-24T06:09:25;11.60;99.90
20068;DHT22;10194;50.824;7.134;2023-03-24T06:11:58;11.60;99.90
20068;DHT22;10194;50.824;7.134;2023-03-24T06:14:24;11.70;99.90
20068;DHT22;10194;50.824;7.134;2023-03-24T06:16:50;11.70;99.90
20068;DHT22;10194;50.824;7.134;2023-03-24T06:19:16;11.70;99.90
20068;DHT22;10194;50.824;7.134;2023-03-24T06:21:43;11.70;99.90
20068;DHT22;10194;50.824;7.134;2023-03-24T06:24:09;11.70;99.90
20068;DHT22;10194;50.824;7.134;2023-03-24T06:26:39;11.70;99.90
20068;DHT22;10194;50.824;7.134;2023-03-24T06:29:07;11.80;99.90
20068;DHT22;10194;50.824;7.134;2023-03-24T06:31:33;11.80;99.90
20068;DHT22;10194;50.824;7.134;2023-03-24T06:33:58;11.80;99.90
20068;DHT22;10194;50.824;7.134;2023-03-24T06:36:24;11.80;99.90
20068;DHT22;10194;50.824;7.134;2023-03-24T06:38:50;11.90;99.90
20068;DHT22;10194;50.824;7.134;2023-03-24T06:41:16;11.90;99.90
20068;DHT22;10194;50.824;7.134;2023-03-24T06:43:41;12.00;99.90
20068;DHT22;10194;50.824;7.134;2023-03-24T06:46:07;12.10;99.90
20068;DHT22;10194;50.824;7.134;2023-03-24T06:48:34;12.20;99.90
20068;DHT22;10194;50.824;7.134;2023-03-24T06:51:01;12.20;99.90
20068;DHT22;10194;50.824;7.134;2023-03-24T06:53:27;12.20;99.90
20068;DHT22;10194;50.824;7.134;2023-03-24T06:55:53;12.20;99.90
20068;DHT22;10194;50.824;7.134;2023-03-24T06:58:19;12.10;99.90
20068;DHT22;10194;50.824;7.134;2023-03-24T07:00:45;12.10;99.90
20068;DHT22;10194;50.824;7.134;2023-03-24T07:03:11;12.00;99.90
20068;DHT22;10194;50.824;7.134;2023-03-24T07:05:43;12.00;99.90
20068;DHT22;10194;50.824;7.134;2023-03-24T07:08:10;11.90;99.90
20068;DHT22;10194;50.824;7.134;2023-03-24T07:10:38;11.80;99.90
20068;DHT22;10194;50.824;7.134;2023-03-24T07:13:05;11.80;99.90
20068;DHT22;10194;50.824;7.134;2023-03-24T07:15:32;11.80;99.90
20068;DHT22;10194;50.824;7.134;2023-03-24T07:17:58;11.70;99.90
20068;DHT22;10194;50.824;7.134;2023-03-24T07:20:24;11.70;99.90
20068;DHT22;10194;50.824;7.134;2023-03-24T07:22:49;11.60;99.90
20068;DHT22;10194;50.824;7.134;2023-03-24T07:25:15;11.60;99.90
20068;DHT22;10194;50.824;7.134;2023-03-24T07:27:44;11.60;99.90
20068;DHT22;10194;50.824;7.134;2023-03-24T07:30:11;11.60;99.90
20068;DHT22;10194;50.824;7.134;2023-03-24T07:32:38;11.50;99.90
20068;DHT22;10194;50.824;7.134;2023-03-24T07:35:13;11.50;99.90
20068;DHT22;10194;50.824;7.134;2023-03-24T07:37:41;11.60;99.90
20068;DHT22;10194;50.824;7.134;2023-03-24T07:40:08;11.50;99.90
20068;DHT22;10194;50.824;7.134;2023-03-24T07:42:40;11.50;99.90
20068;DHT22;10194;50.824;7.134;2023-03-24T07:45:08;11.50;99.90
20068;DHT22;10194;50.824;7.134;2023-03-24T07:47:35;11.40;99.90
20068;DHT22;10194;50.824;7.134;2023-03-24T07:50:01;11.40;99.90
20068;DHT22;10194;50.824;7.134;2023-03-24T07:52:29;11.40;99.90
20068;DHT22;10194;50.824;7.134;2023-03-24T07:54:55;11.50;99.90
20068;DHT22;10194;50.824;7.134;2023-03-24T07:57:21;11.60;99.90
20068;DHT22;10194;50.824;7.134;2023-03-24T07:59:47;11.70;99.90
20068;DHT22;10194;50.824;7.134;2023-03-24T08:02:20;11.70;99.90
20068;DHT22;10194;50.824;7.134;2023-03-24T08:04:45;11.80;99.90
20068;DHT22;10194;50.824;7.134;2023-03-24T08:07:18;11.80;99.90
20068;DHT22;10194;50.824;7.134;2023-03-24T08:09:44;11.70;99.90
20068;DHT22;10194;50.824;7.134;2023-03-24T08:12:10;11.70;99.90
20068;DHT22;10194;50.824;7.134;2023-03-24T08:14:35;11.70;99.90
20068;DHT22;10194;50.824;7.134;2023-03-24T08:17:01;11.80;99.90
20068;DHT22;10194;50.824;7.134;2023-03-24T08:19:27;11.80;99.90
20068;DHT22;10194;50.824;7.134;2023-03-24T08:21:53;11.80;99.90
20068;DHT22;10194;50.824;7.134;2023-03-24T08:24:18;11.90;99.90
20068;DHT22;10194;50.824;7.134;2023-03-24T08:26:44;11.90;99.90
20068;DHT22;10194;50.824;7.134;2023-03-24T08:29:11;12.00;99.90
20068;DHT22;10194;50.824;7.134;2023-03-24T08:31:37;12.00;99.90
20068;DHT22;10194;50.824;7.134;2023-03-24T08:34:04;12.10;99.90
20068;DHT22;10194;50.824;7.134;2023-03-24T08:36:31;12.10;99.90
20068;DHT22;10194;50.824;7.134;2023-03-24T08:38:57;12.10;99.90
20068;DHT22;10194;50.824;7.134;2023-03-24T08:41:25;12.10;99.90
20068;DHT22;10194;50.824;7.134;2023-03-24T08:44:01;12.20;99.90
20068;DHT22;10194;50.824;7.134;2023-03-24T08:46:30;12.40;99.90
20068;DHT22;10194;50.824;7.134;2023-03-24T08:48:58;12.50;99.90
20068;DHT22;10194;50.824;7.134;2023-03-24T08:51:25;12.60;99.90
20068;DHT22;10194;50.824;7.134;2023-03-24T08:53:51;12.60;99.90
20068;DHT22;10194;50.824;7.134;2023-03-24T08:56:19;12.70;99.90
20068;DHT22;10194;50.824;7.134;2023-03-24T08:58:45;12.70;99.90
20068;DHT22;10194;50.824;7.134;2023-03-24T09:01:16;12.80;99.90
20068;DHT22;10194;50.824;7.134;2023-03-24T09:03:43;13.30;99.90
20068;DHT22;10194;50.824;7.134;2023-03-24T09:06:10;13.60;99.90
20068;DHT22;10194;50.824;7.134;2023-03-24T09:08:37;13.80;99.90
20068;DHT22;10194;50.824;7.134;2023-03-24T09:11:04;13.90;99.90
20068;DHT22;10194;50.824;7.134;2023-03-24T09:13:30;13.90;99.90
20068;DHT22;10194;50.824;7.134;2023-03-24T09:16:01;14.10;99.90
20068;DHT22;10194;50.824;7.134;2023-03-24T09:18:28;14.10;99.90
20068;DHT22;10194;50.824;7.134;2023-03-24T09:20:54;14.20;99.90
20068;DHT22;10194;50.824;7.134;2023-03-24T09:23:20;14.20;99.90
20068;DHT22;10194;50.824;7.134;2023-03-24T09:25:51;14.60;99.90
20068;DHT22;10194;50.824;7.134;2023-03-24T09:28:19;15.00;99.90
20068;DHT22;10194;50.824;7.134;2023-03-24T09:30:46;15.20;99.90
20068;DHT22;10194;50.824;7.134;2023-03-24T09:33:12;15.20;99.90
20068;DHT22;10194;50.824;7.134;2023-03-24T09:35:38;15.10;99.90
20068;DHT22;10194;50.824;7.134;2023-03-24T09:38:04;15.00;99.90
20068;DHT22;10194;50.824;7.134;2023-03-24T09:40:35;14.80;99.90
20068;DHT22;10194;50.824;7.134;2023-03-24T09:43:13;15.00;99.90
20068;DHT22;10194;50.824;7.134;2023-03-24T09:45:56;14.50;99.90
20068;DHT22;10194;50.824;7.134;2023-03-24T09:51:27;14.40;99.90
20068;DHT22;10194;50.824;7.134;2023-03-24T09:56:41;14.80;99.90
20068;DHT22;10194;50.824;7.134;2023-03-24T09:59:14;14.50;99.90
20068;DHT22;10194;50.824;7.134;2023-03-24T10:01:43;14.30;99.90
20068;DHT22;10194;50.824;7.134;2023-03-24T10:04:20;14.20;99.90
20068;DHT22;10194;50.824;7.134;2023-03-24T10:06:56;14.20;99.90
20068;DHT22;10194;50.824;7.134;2023-03-24T10:09:28;14.30;99.90
20068;DHT22;10194;50.824;7.134;2023-03-24T10:12:45;14.50;99.90
20068;DHT22;10194;50.824;7.134;2023-03-24T10:15:31;14.70;99.90
20068;DHT22;10194;50.824;7.134;2023-03-24T10:18:14;14.90;99.90
20068;DHT22;10194;50.824;7.134;2023-03-24T10:21:02;15.10;99.90
20068;DHT22;10194;50.824;7.134;2023-03-24T10:32:05;15.10;99.90
20068;DHT22;10194;50.824;7.134;2023-03-24T10:34:37;14.90;99.90
20068;DHT22;10194;50.824;7.134;2023-03-24T10:37:09;14.70;99.90
20068;DHT22;10194;50.824;7.134;2023-03-24T10:39:36;14.50;99.90
20068;DHT22;10194;50.824;7.134;2023-03-24T10:42:02;14.60;99.90
20068;DHT22;10194;50.824;7.134;2023-03-24T10:44:29;14.70;99.90
20068;DHT22;10194;50.824;7.134;2023-03-24T10:46:58;14.90;99.90
20068;DHT22;10194;50.824;7.134;2023-03-24T10:49:27;15.00;99.90
20068;DHT22;10194;50.824;7.134;2023-03-24T10:51:59;15.40;99.90
20068;DHT22;10194;50.824;7.134;2023-03-24T10:54:29;15.50;99.90
20068;DHT22;10194;50.824;7.134;2023-03-24T11:07:38;15.80;99.90
20068;DHT22;10194;50.824;7.134;2023-03-24T11:10:14;15.70;99.90
20068;DHT22;10194;50.824;7.134;2023-03-24T11:15:30;15.70;99.90
20068;DHT22;10194;50.824;7.134;2023-03-24T11:18:13;15.70;99.90
20068;DHT22;10194;50.824;7.134;2023-03-24T11:20:44;15.80;99.90
20068;DHT22;10194;50.824;7.134;2023-03-24T11:29:04;15.80;99.90
20068;DHT22;10194;50.824;7.134;2023-03-24T11:31:36;15.80;99.90
20068;DHT22;10194;50.824;7.134;2023-03-24T11:36:56;16.60;99.90
20068;DHT22;10194;50.824;7.134;2023-03-24T11:39:27;16.70;99.90
20068;DHT22;10194;50.824;7.134;2023-03-24T11:52:52;16.20;99.90
20068;DHT22;10194;50.824;7.134;2023-03-24T11:55:43;16.20;99.90
20068;DHT22;10194;50.824;7.134;2023-03-24T12:01:16;16.40;99.90
20068;DHT22;10194;50.824;7.134;2023-03-24T12:09:58;17.00;99.90
20068;DHT22;10194;50.824;7.134;2023-03-24T12:21:59;16.00;99.90
20068;DHT22;10194;50.824;7.134;2023-03-24T12:24:57;16.10;99.90
20068;DHT22;10194;50.824;7.134;2023-03-24T12:33:58;16.30;99.90
20068;DHT22;10194;50.824;7.134;2023-03-24T12:36:52;16.20;99.90
20068;DHT22;10194;50.824;7.134;2023-03-24T12:39:34;16.10;99.90
20068;DHT22;10194;50.824;7.134;2023-03-24T12:42:15;16.10;99.90
20068;DHT22;10194;50.824;7.134;2023-03-24T12:48:04;16.10;99.90
20068;DHT22;10194;50.824;7.134;2023-03-24T12:58:44;16.60;99.30
20068;DHT22;10194;50.824;7.134;2023-03-24T13:04:34;16.70;97.60
20068;DHT22;10194;50.824;7.134;2023-03-24T13:07:12;16.60;98.10
20068;DHT22;10194;50.824;7.134;2023-03-24T13:10:19;16.70;99.20
20068;DHT22;10194;50.824;7.134;2023-03-24T13:13:01;17.00;98.20
20068;DHT22;10194;50.824;7.134;2023-03-24T13:15:40;17.20;97.40
20068;DHT22;10194;50.824;7.134;2023-03-24T13:18:31;17.30;97.90
20068;DHT22;10194;50.824;7.134;2023-03-24T13:21:15;17.40;97.20
20068;DHT22;10194;50.824;7.134;2023-03-24T13:23:53;17.60;97.00
20068;DHT22;10194;50.824;7.134;2023-03-24T13:26:39;17.70;94.90
20068;DHT22;10194;50.824;7.134;2023-03-24T13:29:53;17.60;94.50
20068;DHT22;10194;50.824;7.134;2023-03-24T13:32:43;17.30;94.70
20068;DHT22;10194;50.824;7.134;2023-03-24T13:35:25;17.20;96.20
20068;DHT22;10194;50.824;7.134;2023-03-24T13:38:13;17.20;96.20
20068;DHT22;10194;50.824;7.134;2023-03-24T13:40:48;17.20;95.70
20068;DHT22;10194;50.824;7.134;2023-03-24T13:43:28;17.10;96.00
20068;DHT22;10194;50.824;7.134;2023-03-24T13:46:03;17.10;96.20
20068;DHT22;10194;50.824;7.134;2023-03-24T13:51:28;17.00;96.80
20068;DHT22;10194;50.824;7.134;2023-03-24T13:53:59;16.90;95.70
20068;DHT22;10194;50.824;7.134;2023-03-24T13:56:36;16.80;96.90
20068;DHT22;10194;50.824;7.134;2023-03-24T13:59:26;16.80;96.80
20068;DHT22;10194;50.824;7.134;2023-03-24T14:02:18;16.80;96.60
20068;DHT22;10194;50.824;7.134;2023-03-24T14:12:53;16.20;98.70
20068;DHT22;10194;50.824;7.134;2023-03-24T14:15:31;16.10;99.90
20068;DHT22;10194;50.824;7.134;2023-03-24T14:23:45;16.50;98.40
20068;DHT22;10194;50.824;7.134;2023-03-24T14:28:48;16.40;99.90
20068;DHT22;10194;50.824;7.134;2023-03-24T14:34:06;16.30;99.90
20068;DHT22;10194;50.824;7.134;2023-03-24T14:36:43;16.30;99.90
20068;DHT22;10194;50.824;7.134;2023-03-24T14:42:26;16.30;99.30
20068;DHT22;10194;50.824;7.134;2023-03-24T14:44:57;16.10;99.90
20068;DHT22;10194;50.824;7.134;2023-03-24T14:47:34;15.90;99.70
20068;DHT22;10194;50.824;7.134;2023-03-24T14:50:18;16.00;99.90
20068;DHT22;10194;50.824;7.134;2023-03-24T14:52:58;16.10;99.60
20068;DHT22;10194;50.824;7.134;2023-03-24T14:55:26;16.10;99.90
20068;DHT22;10194;50.824;7.134;2023-03-24T14:58:11;16.00;99.90
20068;DHT22;10194;50.824;7.134;2023-03-24T15:00:52;15.90;99.90
20068;DHT22;10194;50.824;7.134;2023-03-24T15:03:23;15.70;99.90
20068;DHT22;10194;50.824;7.134;2023-03-24T15:05:52;15.40;99.90
20068;DHT22;10194;50.824;7.134;2023-03-24T15:08:22;15.20;99.90
20068;DHT22;10194;50.824;7.134;2023-03-24T15:23:58;15.20;99.90
20068;DHT22;10194;50.824;7.134;2023-03-24T15:26:28;15.20;99.90
20068;DHT22;10194;50.824;7.134;2023-03-24T15:29:05;15.40;99.90
20068;DHT22;10194;50.824;7.134;2023-03-24T15:31:32;15.60;99.90
20068;DHT22;10194;50.824;7.134;2023-03-24T15:37:03;15.70;99.90
20068;DHT22;10194;50.824;7.134;2023-03-24T15:39:35;15.70;99.90
20068;DHT22;10194;50.824;7.134;2023-03-24T15:42:15;15.70;99.90
20068;DHT22;10194;50.824;7.134;2023-03-24T15:44:44;15.50;99.90
20068;DHT22;10194;50.824;7.134;2023-03-24T15:47:26;15.50;99.90
20068;DHT22;10194;50.824;7.134;2023-03-24T15:49:59;15.30;99.90
20068;DHT22;10194;50.824;7.134;2023-03-24T15:52:31;15.30;99.90
20068;DHT22;10194;50.824;7.134;2023-03-24T15:55:26;15.30;99.90
20068;DHT22;10194;50.824;7.134;2023-03-24T15:57:58;15.40;99.90
20068;DHT22;10194;50.824;7.134;2023-03-24T16:00:28;15.30;99.90
20068;DHT22;10194;50.824;7.134;2023-03-24T16:03:03;15.40;99.90
20068;DHT22;10194;50.824;7.134;2023-03-24T16:05:32;15.50;99.90
20068;DHT22;10194;50.824;7.134;2023-03-24T16:08:04;15.50;99.90
20068;DHT22;10194;50.824;7.134;2023-03-24T16:10:35;15.70;99.90
20068;DHT22;10194;50.824;7.134;2023-03-24T16:13:17;15.80;99.90
20068;DHT22;10194;50.824;7.134;2023-03-24T16:18:35;15.60;99.90
20068;DHT22;10194;50.824;7.134;2023-03-24T16:21:10;15.40;99.90
20068;DHT22;10194;50.824;7.134;2023-03-24T16:23:41;15.20;99.90
20068;DHT22;10194;50.824;7.134;2023-03-24T16:28:45;14.90;99.90
20068;DHT22;10194;50.824;7.134;2023-03-24T16:31:26;14.90;99.90
20068;DHT22;10194;50.824;7.134;2023-03-24T16:33:58;14.70;99.90
20068;DHT22;10194;50.824;7.134;2023-03-24T16:36:24;14.70;99.90
20068;DHT22;10194;50.824;7.134;2023-03-24T16:38:54;14.10;99.90
20068;DHT22;10194;50.824;7.134;2023-03-24T16:41:22;12.20;99.90
20068;DHT22;10194;50.824;7.134;2023-03-24T16:43:48;11.50;99.90
20068;DHT22;10194;50.824;7.134;2023-03-24T16:46:17;11.40;99.90
20068;DHT22;10194;50.824;7.134;2023-03-24T16:48:47;11.20;99.90
20068;DHT22;10194;50.824;7.134;2023-03-24T16:51:14;11.00;99.90
20068;DHT22;10194;50.824;7.134;2023-03-24T16:53:42;11.00;99.90
20068;DHT22;10194;50.824;7.134;2023-03-24T16:56:11;11.00;99.90
20068;DHT22;10194;50.824;7.134;2023-03-24T16:58:38;10.90;99.90
20068;DHT22;10194;50.824;7.134;2023-03-24T17:04:32;10.90;99.90
20068;DHT22;10194;50.824;7.134;2023-03-24T17:06:58;11.00;99.90
20068;DHT22;10194;50.824;7.134;2023-03-24T17:09:24;11.00;99.90
20068;DHT22;10194;50.824;7.134;2023-03-24T17:11:52;11.00;99.90
20068;DHT22;10194;50.824;7.134;2023-03-24T17:14:20;10.90;99.90
20068;DHT22;10194;50.824;7.134;2023-03-24T17:16:46;10.90;99.90
20068;DHT22;10194;50.824;7.134;2023-03-24T17:19:18;10.90;99.90
20068;DHT22;10194;50.824;7.134;2023-03-24T17:22:03;10.90;99.90
20068;DHT22;10194;50.824;7.134;2023-03-24T17:24:32;10.90;99.90
20068;DHT22;10194;50.824;7.134;2023-03-24T17:27:14;10.80;99.90
20068;DHT22;10194;50.824;7.134;2023-03-24T17:29:45;10.70;99.90
20068;DHT22;10194;50.824;7.134;2023-03-24T17:32:11;10.60;99.90
20068;DHT22;10194;50.824;7.134;2023-03-24T17:34:37;10.60;99.90
20068;DHT22;10194;50.824;7.134;2023-03-24T17:37:03;10.40;99.90
20068;DHT22;10194;50.824;7.134;2023-03-24T17:39:30;10.30;99.90
20068;DHT22;10194;50.824;7.134;2023-03-24T17:41:56;10.20;99.90
20068;DHT22;10194;50.824;7.134;2023-03-24T17:44:26;10.10;99.90
20068;DHT22;10194;50.824;7.134;2023-03-24T17:46:52;10.00;99.90
20068;DHT22;10194;50.824;7.134;2023-03-24T17:49:18;10.00;99.90
20068;DHT22;10194;50.824;7.134;2023-03-24T17:51:44;9.90;99.90
20068;DHT22;10194;50.824;7.134;2023-03-24T17:54:09;9.80;99.90
20068;DHT22;10194;50.824;7.134;2023-03-24T17:56:36;9.80;99.90
20068;DHT22;10194;50.824;7.134;2023-03-24T17:59:02;9.80;99.90
20068;DHT22;10194;50.824;7.134;2023-03-24T18:01:29;9.80;99.90
20068;DHT22;10194;50.824;7.134;2023-03-24T18:03:56;9.70;99.90
20068;DHT22;10194;50.824;7.134;2023-03-24T18:06:22;9.80;99.90
20068;DHT22;10194;50.824;7.134;2023-03-24T18:08:50;9.70;99.90
20068;DHT22;10194;50.824;7.134;2023-03-24T18:11:16;9.70;99.90
20068;DHT22;10194;50.824;7.134;2023-03-24T18:13:42;9.80;99.90
20068;DHT22;10194;50.824;7.134;2023-03-24T18:16:08;9.90;99.90
20068;DHT22;10194;50.824;7.134;2023-03-24T18:18:36;10.00;99.90
20068;DHT22;10194;50.824;7.134;2023-03-24T18:21:04;10.00;99.90
20068;DHT22;10194;50.824;7.134;2023-03-24T18:23:32;10.10;99.90
20068;DHT22;10194;50.824;7.134;2023-03-24T18:25:59;10.10;99.90
20068;DHT22;10194;50.824;7.134;2023-03-24T18:28:29;10.10;99.90
20068;DHT22;10194;50.824;7.134;2023-03-24T18:30:55;10.20;99.90
20068;DHT22;10194;50.824;7.134;2023-03-24T18:33:22;10.10;99.90
20068;DHT22;10194;50.824;7.134;2023-03-24T18:35:51;10.10;99.90
20068;DHT22;10194;50.824;7.134;2023-03-24T18:38:20;10.10;99.90
20068;DHT22;10194;50.824;7.134;2023-03-24T18:41:06;10.10;99.90
20068;DHT22;10194;50.824;7.134;2023-03-24T18:43:34;10.10;99.90
20068;DHT22;10194;50.824;7.134;2023-03-24T18:46:08;10.00;99.90
20068;DHT22;10194;50.824;7.134;2023-03-24T18:48:38;10.00;99.90
20068;DHT22;10194;50.824;7.134;2023-03-24T18:51:09;10.00;99.90
20068;DHT22;10194;50.824;7.134;2023-03-24T18:53:36;10.00;99.90
20068;DHT22;10194;50.824;7.134;2023-03-24T18:56:04;10.00;99.90
20068;DHT22;10194;50.824;7.134;2023-03-24T18:58:31;10.00;99.90
20068;DHT22;10194;50.824;7.134;2023-03-24T19:01:02;10.00;99.90
20068;DHT22;10194;50.824;7.134;2023-03-24T19:03:33;10.00;99.90
20068;DHT22;10194;50.824;7.134;2023-03-24T19:06:02;10.00;99.90
20068;DHT22;10194;50.824;7.134;2023-03-24T19:08:32;10.00;99.90
20068;DHT22;10194;50.824;7.134;2023-03-24T19:11:00;9.90;99.90